Airfield :
LOGIN :

Register | Disclaimer

   EN    FR    IT 

 










Legend :    VFR   Marginal VFR   IFR   Intensive IFR   Very Intensive IFR
Visi :
Ceiling :
>= 8 km
>= 3000ft
5 to 8 km
1000 to 3000 ft
1500m to 5 km
500 to 1000 ft
800 to 1500m
200 to 500 ft
< 800m
< 200 ft
Symbols :   Thunderstorms  Fog  Heavy snow  Heavy precipitations  Wind > 20 kt
SIGMETs :     Misc.  Thunderstorms  Icing  Turbulence  Mountain Waves  Volcanic Ashes







- Airport Elevation : 375 ft
- IATA code : MST


EHBK - Maastricht Aachen

CURRENT METAR :
  • 210525Z AUTO 24003KT 220V280 9999 NSC 19/14 Q1011 NOSIG

EXPIRED METARs :
  • 210455Z AUTO 21004KT 9999 NSC 17/13 Q1011 NOSIG
  • 210425Z AUTO 24003KT 220V280 9999 NCD 17/13 Q1011 NOSIG
  • 210355Z AUTO 20003KT 9999 NCD 16/12 Q1011 NOSIG
  • 210325Z AUTO VRB02KT 9999 NSC 18/13 Q1011
  • 210255Z AUTO VRB02KT 9999 NSC 18/12 Q1011
  • 210225Z AUTO VRB02KT 9999 NSC 18/12 Q1011

TAF TAF EHBK
Valid from the 21 at 00:00 until the 22 at 06:00 UTC


202239Z 2100/2206 32005KT CAVOK
No reported NOTAMs for that airfield.



MET'MAP, your aeronautical weather chart ! - Copyright ORBIFLY December 2007 - Disclaimer

ORBIFLY MET'MAP TEAM :

Programming & Development : Alexandra Zaïnal
Concept & Development : Baudouin d'Aumeries
Co-Development & Prog : Marc-Olivier Méhu
Technical & hardware support : Manuel Goepfert

Contact : metmap@orbifly.com




SOURCES & CREDITS :

   NOAA